AirNav   Everest Fuels
 
 879 users online  

AZ92 Banner Baywood Medical Center Heliport
Mesa, Arizona, USA

GOING TO MESA?


FAA INFORMATION EFFECTIVE 08 SEPTEMBER 2022

Location

FAA Identifier: AZ92
Lat/Long: 33-24-40.0200N 111-41-13.2700W
33-24.667000N 111-41.221167W
33.4111167,-111.6870194
(estimated)
Elevation: 1425 ft. / 434 m (estimated)
Variation: 13E (1985)
Time zone: UTC -7 (year round; does not observe DST)
Zip code: 85206

Heliport Operations

Heliport use: Private use, MEDICAL.
Activation date: 11/1985
Control tower: no
ARTCC: ALBUQUERQUE CENTER
FSS: PRESCOTT FLIGHT SERVICE STATION
Attendance: CONTINUOUS
Segmented circle: no
Lights: FOR PERIMETER LGTS CALL (480) 981-4310.
Beacon: DIRECTIONAL LIGHTS ARE LOCATED TO THE SOUTH OF THE HELIPAD.

Heliport Communications

WX ASOS at FFZ (4 nm NW): PHONE 480-641-4111
WX AWOS-3 at IWA (6 nm S): 133.5 (480-988-9428)
WX AWOS-3PT at CHD (11 nm SW): PHONE 480-814-9952
WX ASOS at PHX (16 nm W): PHONE 602-231-8557
WX ASOS at SDL (17 nm NW): PHONE 480-483-3049

Nearby radio navigation aids

VOR radial/distance  VOR name  Freq  Var
IWAr332/6.7WILLIE VORTAC113.3013E
PXRr083/14.2PHOENIX VORTAC115.6012E
TFDr007/33.4STANFIELD VORTAC114.8012E

Heliport Services

Runway Information

Helipad H1

Dimensions: 40 x 40 ft. / 12 x 12 m
Surface: mats
Runway edge lights: PERI
Latitude: 33-24.667000N
Longitude: 111-41.221167W
Elevation: 1425.0 ft.
Traffic pattern: leftleft

Heliport Ownership and Management from official FAA records

Ownership: Privately-owned
Owner: BANNER BAYWOOD MEDICAL CENTER
6644 EAST BAYWOOD AVE
MESA, AZ 85206
Phone 480-321-2000
Manager: TOM DEBARDELEBEN
6644 EAST BAYWOOD AVE
MESA, AZ 85206
Phone 480-321-4108

Additional Remarks

ROOFTOP HELIPAD.
FOR CD CTC PHOENIX APCH AT 602-306-2565.

Instrument Procedures

There are no published instrument procedures at AZ92.

Some nearby airports with instrument procedures:

KFFZ - Falcon Field Airport (4 nm NW)
KIWA - Phoenix-Mesa Gateway Airport (6 nm S)
KCHD - Chandler Municipal Airport (11 nm SW)
P19 - Stellar Airpark (13 nm SW)
KPHX - Phoenix Sky Harbor International Airport (16 nm W)
KSDL - Scottsdale Airport (17 nm NW)
 
Loc | Ops | Rwys | IFR | FBO | Links
Com | Nav | Svcs | Stats | Notes
Area around AZ92 (Banner Baywood Medical Center Heliport)
 
Road maps at: MapQuest Bing Google
 
Aerial photo
No photo
 
Sectional chart

 
Airport distance calculator
Flying to Banner Baywood Medical Center Heliport? Find the distance to fly.

From to AZ92

Sunrise and sunset
Times for 02-Oct-2022
 Local
(UTC-7)
 Zulu
(UTC)
Morning civil twilight05:5812:58
Sunrise06:2313:23
Sunset18:0901:09
Evening civil twilight18:3401:34

Current date and time
Zulu (UTC)  02-Oct-2022 23:36:24
Local (UTC-7)  02-Oct-2022 16:36:24
 
METAR
KFFZ 
4nm NW 
022254Z AUTO 27008KT 10SM CLR 34/11 A2983 RMK AO2 SLP077 T03440106
KIWA 
7nm S 
022250Z 28006KT 10SM CLR 34/11 A2985
KCHD 
11nm SW 
022247Z 22008KT 10SM FEW100 35/10 A2984
KSDL 
17nm NW 
022253Z 18007KT 150V220 10SM CLR 34/11 A2986 RMK AO2 SLP084 T03440106
KPHX 
18nm W 
022251Z VRB03KT 10SM FEW100 SCT250 36/11 A2981 RMK AO2 SLP074 CB DSNT NW-N TCU DSNT SE T03560111 $
TAF
KIWA 
7nm S 
021720Z 0218/0318 18008KT P6SM FEW100 FEW150 FM022200 22007KT P6SM FEW100 FEW150 FM030000 26006KT P6SM FEW100 FEW150 FM030300 07005KT P6SM FEW100 SCT150 SCT250 FM030500 13008KT P6SM FEW100 FEW150
KSDL 
17nm NW 
021720Z 0218/0318 VRB04KT P6SM FEW100 FEW150 FM022100 21007KT P6SM FEW100 FEW150 FM030300 04005KT P6SM FEW100 SCT150 SCT250 FM030800 VRB03KT P6SM FEW100 FEW150
KPHX 
18nm W 
022102Z 0221/0324 16007KT P6SM FEW100 FEW150 FM022200 21007KT P6SM FEW100 FEW150 FM030000 25006KT P6SM FEW100 FEW150 FM030400 10005KT P6SM FEW100 SCT150 SCT250 FM031700 14008KT P6SM FEW100 FEW150 FM032100 28008KT P6SM FEW100 FEW150
NOTAMs
Click for the latest NOTAMs
NOTAMs are issued by the DoD/FAA and will open in a separate window not controlled by AirNav.

 

 
 

Would you like to see your business listed on this page?

 If your business provides an interesting product or service to pilots, flight crews, aircraft, or users of the Banner Baywood Medical Center Heliport, you should consider listing it here.  To start the listing process, click on the button below
 
Add a business
 

Other Pages about Banner Baywood Medical Center Heliport

Update a link
 
Copyright © AirNav, LLC. All rights reserved. Privacy Policy  Contact